AXB weather

Maxson Airfield
Alexandria Bay, New York, United States

Public forecast

Using degrees Fahrenheit for public forecast. Weather courtesy of forecast.io.

Closest aviation weather report (METAR) to Maxson Airfield

Closest report is Wheeler Sack Army Air Field, 17.3 nm (31.9 km) SSE. Retrieved 2020/01/23 21:56 UTC (25 minutes ago):

KGTB 232156Z AUTO 07004KT 10SM OVC180 00/M09 A3026 RMK AO2 SLP257 T10051087

Closest aviation forecast (TAF) to Maxson Airfield

Closest forecast is Wheeler Sack Army Air Field, 17.3 nm (31.9 km) SSE. Retrieved 2020/01/23 17:03 UTC (5 hours ago):

TAF KGTB 231700Z 2317/2423 15006KT 9999 FEW100 SCT130 BKN150 601505 QNH3021INS WND 10006KT AFT 2400 TX03/2320Z TNM03/2410Z